<?xml version="1.0" encoding="UTF-8" standalone="no" ?>
<gpx xmlns="http://www.topografix.com/GPX/1/1" xmlns:xsi="http://www.w3.org/2001/XMLSchema-instance" xsi:schemaLocation="http://www.topografix.com/GPX/1/1 http://www.topografix.com/GPX/1/1/gpx.xsd" version="1.1" creator="VisuGPX - https://www.visugpx.com">
  <metadata>
    <name>Etape 2 Férel - Les Moûtiers</name>
    <desc><![CDATA[Randonnée vélo Rennes - Hendaye, empruntant la Vélodyssée à partir de Saint-Brevin-Les-Pins. ]]></desc>
  </metadata>
  <trk>
    <name><![CDATA[Sequence 20]]></name>
    <trkseg>
      <trkpt lat="47.24537" lon="-2.1632">
        <ele>83</ele>
        <time>2016-07-22T11:43:01Z</time>
      </trkpt>
      <trkpt lat="47.24556" lon="-2.1634">
        <ele>77</ele>
        <time>2016-07-22T11:43:06Z</time>
      </trkpt>
      <trkpt lat="47.24573" lon="-2.16381">
        <ele>74</ele>
        <time>2016-07-22T11:43:12Z</time>
      </trkpt>
      <trkpt lat="47.24576" lon="-2.16386">
        <ele>73</ele>
        <time>2016-07-22T11:43:13Z</time>
      </trkpt>
      <trkpt lat="47.24592" lon="-2.16416">
        <ele>71</ele>
        <time>2016-07-22T11:43:18Z</time>
      </trkpt>
      <trkpt lat="47.24621" lon="-2.16464">
        <ele>65</ele>
        <time>2016-07-22T11:43:27Z</time>
      </trkpt>
      <trkpt lat="47.24624" lon="-2.16468">
        <ele>65</ele>
        <time>2016-07-22T11:43:28Z</time>
      </trkpt>
      <trkpt lat="47.24642" lon="-2.16491">
        <ele>62</ele>
        <time>2016-07-22T11:43:33Z</time>
      </trkpt>
      <trkpt lat="47.24651" lon="-2.16525">
        <ele>58</ele>
        <time>2016-07-22T11:43:38Z</time>
      </trkpt>
      <trkpt lat="47.24665" lon="-2.16556">
        <ele>53</ele>
        <time>2016-07-22T11:43:44Z</time>
      </trkpt>
      <trkpt lat="47.24674" lon="-2.16578">
        <ele>49</ele>
        <time>2016-07-22T11:43:48Z</time>
      </trkpt>
      <trkpt lat="47.24682" lon="-2.16616">
        <ele>45</ele>
        <time>2016-07-22T11:43:55Z</time>
      </trkpt>
      <trkpt lat="47.24694" lon="-2.16638">
        <ele>33</ele>
        <time>2016-07-22T11:44:01Z</time>
      </trkpt>
      <trkpt lat="47.24705" lon="-2.16645">
        <ele>28</ele>
        <time>2016-07-22T11:44:04Z</time>
      </trkpt>
      <trkpt lat="47.24708" lon="-2.16673">
        <ele>22</ele>
        <time>2016-07-22T11:44:09Z</time>
      </trkpt>
      <trkpt lat="47.24711" lon="-2.16718">
        <ele>10</ele>
        <time>2016-07-22T11:44:16Z</time>
      </trkpt>
      <trkpt lat="47.24713" lon="-2.16729">
        <ele>8</ele>
        <time>2016-07-22T11:44:18Z</time>
      </trkpt>
      <trkpt lat="47.24719" lon="-2.16767">
        <ele>-12</ele>
        <time>2016-07-22T11:44:23Z</time>
      </trkpt>
      <trkpt lat="47.24724" lon="-2.16802">
        <ele>-28</ele>
        <time>2016-07-22T11:44:28Z</time>
      </trkpt>
      <trkpt lat="47.2473" lon="-2.16837">
        <ele>-38</ele>
        <time>2016-07-22T11:44:33Z</time>
      </trkpt>
      <trkpt lat="47.24732" lon="-2.16861">
        <ele>-38</ele>
        <time>2016-07-22T11:44:38Z</time>
      </trkpt>
      <trkpt lat="47.24717" lon="-2.16871">
        <ele>-32</ele>
        <time>2016-07-22T11:44:47Z</time>
      </trkpt>
      <trkpt lat="47.24717" lon="-2.16871">
        <ele>-31</ele>
        <time>2016-07-22T11:44:50Z</time>
      </trkpt>
      <trkpt lat="47.24718" lon="-2.16871">
        <ele>-30</ele>
        <time>2016-07-22T11:44:53Z</time>
      </trkpt>
      <trkpt lat="47.24718" lon="-2.1687">
        <ele>-26</ele>
        <time>2016-07-22T11:44:58Z</time>
      </trkpt>
      <trkpt lat="47.24716" lon="-2.16871">
        <ele>-24</ele>
        <time>2016-07-22T11:45:07Z</time>
      </trkpt>
      <trkpt lat="47.24716" lon="-2.1687">
        <ele>-24</ele>
        <time>2016-07-22T11:45:08Z</time>
      </trkpt>
      <trkpt lat="47.24717" lon="-2.16867">
        <ele>-21</ele>
        <time>2016-07-22T11:45:13Z</time>
      </trkpt>
      <trkpt lat="47.2472" lon="-2.16868">
        <ele>-19</ele>
        <time>2016-07-22T11:45:18Z</time>
      </trkpt>
      <trkpt lat="47.24723" lon="-2.1687">
        <ele>-18</ele>
        <time>2016-07-22T11:45:23Z</time>
      </trkpt>
      <trkpt lat="47.24723" lon="-2.16868">
        <ele>-16</ele>
        <time>2016-07-22T11:45:28Z</time>
      </trkpt>
      <trkpt lat="47.24724" lon="-2.16868">
        <ele>-16</ele>
        <time>2016-07-22T11:45:33Z</time>
      </trkpt>
      <trkpt lat="47.24724" lon="-2.16873">
        <ele>-11</ele>
        <time>2016-07-22T11:45:38Z</time>
      </trkpt>
      <trkpt lat="47.24729" lon="-2.16889">
        <ele>-20</ele>
        <time>2016-07-22T11:45:45Z</time>
      </trkpt>
      <trkpt lat="47.24736" lon="-2.16895">
        <ele>-21</ele>
        <time>2016-07-22T11:45:52Z</time>
      </trkpt>
      <trkpt lat="47.24736" lon="-2.16895">
        <ele>-21</ele>
        <time>2016-07-22T11:45:53Z</time>
      </trkpt>
      <trkpt lat="47.24744" lon="-2.16904">
        <ele>-28</ele>
        <time>2016-07-22T11:46:00Z</time>
      </trkpt>
      <trkpt lat="47.24748" lon="-2.1691">
        <ele>-32</ele>
        <time>2016-07-22T11:46:03Z</time>
      </trkpt>
      <trkpt lat="47.24751" lon="-2.16925">
        <ele>-26</ele>
        <time>2016-07-22T11:46:11Z</time>
      </trkpt>
      <trkpt lat="47.24752" lon="-2.16929">
        <ele>-26</ele>
        <time>2016-07-22T11:46:13Z</time>
      </trkpt>
      <trkpt lat="47.2475" lon="-2.16939">
        <ele>-26</ele>
        <time>2016-07-22T11:46:18Z</time>
      </trkpt>
    </trkseg>
  </trk>
</gpx>